sensor_id;sensor_type;location;lat;lon;timestamp;pressure;altitude;pressure_sealevel;temperature;humidity
22651;BME280;11492;42.646;23.400;2023-05-29T00:01:20;94829.59;;;13.88;80.45
22651;BME280;11492;42.646;23.400;2023-05-29T00:03:46;94834.59;;;13.83;81.22
22651;BME280;11492;42.646;23.400;2023-05-29T00:06:12;94836.41;;;13.82;80.84
22651;BME280;11492;42.646;23.400;2023-05-29T00:08:38;94827.41;;;13.78;81.09
22651;BME280;11492;42.646;23.400;2023-05-29T00:11:04;94829.59;;;13.81;80.62
22651;BME280;11492;42.646;23.400;2023-05-29T00:13:29;94827.63;;;13.77;80.71
22651;BME280;11492;42.646;23.400;2023-05-29T00:15:55;94835.19;;;13.85;80.51
22651;BME280;11492;42.646;23.400;2023-05-29T00:18:21;94825.63;;;13.79;80.70
22651;BME280;11492;42.646;23.400;2023-05-29T00:20:47;94840.38;;;13.85;80.65
22651;BME280;11492;42.646;23.400;2023-05-29T00:23:13;94835.19;;;13.85;80.61
22651;BME280;11492;42.646;23.400;2023-05-29T00:25:38;94832.19;;;13.81;80.02
22651;BME280;11492;42.646;23.400;2023-05-29T00:28:06;94829.03;;;13.73;80.46
22651;BME280;11492;42.646;23.400;2023-05-29T00:30:32;94833.81;;;13.50;81.65
22651;BME280;11492;42.646;23.400;2023-05-29T00:32:58;94823.47;;;13.38;82.00
22651;BME280;11492;42.646;23.400;2023-05-29T00:35:24;94828.63;;;13.44;82.24
22651;BME280;11492;42.646;23.400;2023-05-29T00:37:49;94824.06;;;13.52;81.31
22651;BME280;11492;42.646;23.400;2023-05-29T00:40:15;94827.25;;;13.35;81.87
22651;BME280;11492;42.646;23.400;2023-05-29T00:42:40;94826.03;;;13.19;82.94
22651;BME280;11492;42.646;23.400;2023-05-29T00:45:06;94830.84;;;13.28;83.10
22651;BME280;11492;42.646;23.400;2023-05-29T00:47:32;94830.81;;;13.34;82.15
22651;BME280;11492;42.646;23.400;2023-05-29T00:49:57;94830.44;;;13.44;82.07
22651;BME280;11492;42.646;23.400;2023-05-29T00:52:24;94824.66;;;13.54;81.53
22651;BME280;11492;42.646;23.400;2023-05-29T00:54:51;94807.88;;;13.50;81.18
22651;BME280;11492;42.646;23.400;2023-05-29T00:57:17;94811.88;;;13.59;81.09
22651;BME280;11492;42.646;23.400;2023-05-29T00:59:44;94820.66;;;13.58;81.18
22651;BME280;11492;42.646;23.400;2023-05-29T01:02:12;94811.50;;;13.56;80.47
22651;BME280;11492;42.646;23.400;2023-05-29T01:04:39;94815.25;;;13.60;80.38
22651;BME280;11492;42.646;23.400;2023-05-29T01:07:05;94810.47;;;13.50;80.47
22651;BME280;11492;42.646;23.400;2023-05-29T01:09:32;94822.25;;;13.40;80.61
22651;BME280;11492;42.646;23.400;2023-05-29T01:20:38;94824.06;;;13.46;80.86
22651;BME280;11492;42.646;23.400;2023-05-29T01:28:22;94821.06;;;13.30;81.42
22651;BME280;11492;42.646;23.400;2023-05-29T01:30:49;94813.28;;;13.30;80.88
22651;BME280;11492;42.646;23.400;2023-05-29T01:33:17;94819.09;;;13.25;81.23
22651;BME280;11492;42.646;23.400;2023-05-29T01:35:42;94816.88;;;13.10;81.95
22651;BME280;11492;42.646;23.400;2023-05-29T01:38:08;94819.06;;;13.19;82.55
22651;BME280;11492;42.646;23.400;2023-05-29T01:40:33;94815.06;;;12.97;82.29
22651;BME280;11492;42.646;23.400;2023-05-29T01:42:59;94814.63;;;12.88;82.75
22651;BME280;11492;42.646;23.400;2023-05-29T01:45:25;94812.66;;;12.90;82.85
22651;BME280;11492;42.646;23.400;2023-05-29T01:47:51;94804.03;;;12.70;84.23
22651;BME280;11492;42.646;23.400;2023-05-29T01:50:17;94813.41;;;12.71;83.97
22651;BME280;11492;42.646;23.400;2023-05-29T01:52:43;94809.44;;;12.88;83.45
22651;BME280;11492;42.646;23.400;2023-05-29T01:55:09;94810.44;;;12.87;84.33
22651;BME280;11492;42.646;23.400;2023-05-29T01:57:35;94801.28;;;12.91;84.92
22651;BME280;11492;42.646;23.400;2023-05-29T02:00:03;94815.66;;;13.12;83.58
22651;BME280;11492;42.646;23.400;2023-05-29T02:02:40;94813.66;;;13.14;83.56
22651;BME280;11492;42.646;23.400;2023-05-29T02:05:07;94816.66;;;13.18;83.36
22651;BME280;11492;42.646;23.400;2023-05-29T02:07:33;94808.09;;;13.30;83.09
22651;BME280;11492;42.646;23.400;2023-05-29T02:09:59;94798.91;;;13.34;82.80
22651;BME280;11492;42.646;23.400;2023-05-29T02:12:25;94808.91;;;13.43;83.19
22651;BME280;11492;42.646;23.400;2023-05-29T02:14:50;94783.19;;;13.35;83.25
22651;BME280;11492;42.646;23.400;2023-05-29T02:17:16;94799.53;;;13.42;83.01
22651;BME280;11492;42.646;23.400;2023-05-29T02:19:41;94806.50;;;13.29;83.13
22651;BME280;11492;42.646;23.400;2023-05-29T02:22:07;94798.13;;;13.33;83.51
22651;BME280;11492;42.646;23.400;2023-05-29T02:24:32;94798.91;;;13.34;83.52
22651;BME280;11492;42.646;23.400;2023-05-29T02:26:58;94796.75;;;13.31;83.94
22651;BME280;11492;42.646;23.400;2023-05-29T02:29:23;94804.72;;;13.36;83.94
22651;BME280;11492;42.646;23.400;2023-05-29T02:31:49;94807.09;;;13.37;83.76
22651;BME280;11492;42.646;23.400;2023-05-29T02:34:14;94811.09;;;13.33;83.66
22651;BME280;11492;42.646;23.400;2023-05-29T02:36:40;94811.28;;;13.32;83.53
22651;BME280;11492;42.646;23.400;2023-05-29T02:39:05;94801.91;;;13.24;83.02
22651;BME280;11492;42.646;23.400;2023-05-29T02:41:31;94810.09;;;13.28;82.79
22651;BME280;11492;42.646;23.400;2023-05-29T02:43:56;94810.69;;;13.23;83.26
22651;BME280;11492;42.646;23.400;2023-05-29T02:46:22;94818.06;;;13.26;83.11
22651;BME280;11492;42.646;23.400;2023-05-29T02:48:47;94814.69;;;13.26;83.67
22651;BME280;11492;42.646;23.400;2023-05-29T02:51:13;94820.47;;;13.21;83.40
22651;BME280;11492;42.646;23.400;2023-05-29T02:53:39;94824.06;;;13.21;82.65
22651;BME280;11492;42.646;23.400;2023-05-29T02:56:06;94815.09;;;13.17;83.53
22651;BME280;11492;42.646;23.400;2023-05-29T02:58:33;94820.84;;;13.19;82.67
22651;BME280;11492;42.646;23.400;2023-05-29T03:01:00;94815.09;;;13.17;83.34
22651;BME280;11492;42.646;23.400;2023-05-29T03:03:27;94819.69;;;13.15;82.83
22651;BME280;11492;42.646;23.400;2023-05-29T03:05:53;94830.81;;;13.09;84.23
22651;BME280;11492;42.646;23.400;2023-05-29T03:08:18;94821.28;;;13.09;83.95
22651;BME280;11492;42.646;23.400;2023-05-29T03:10:44;94830.25;;;13.20;83.56
22651;BME280;11492;42.646;23.400;2023-05-29T03:13:10;94828.84;;;13.17;83.23
22651;BME280;11492;42.646;23.400;2023-05-29T03:15:35;94819.66;;;13.08;83.56
22651;BME280;11492;42.646;23.400;2023-05-29T03:18:01;94832.59;;;13.02;83.63
22651;BME280;11492;42.646;23.400;2023-05-29T03:20:26;94828.59;;;12.93;84.72
22651;BME280;11492;42.646;23.400;2023-05-29T03:22:53;94815.84;;;12.98;84.58
22651;BME280;11492;42.646;23.400;2023-05-29T03:25:19;94821.28;;;13.09;85.06
22651;BME280;11492;42.646;23.400;2023-05-29T03:27:45;94825.03;;;13.13;84.09
22651;BME280;11492;42.646;23.400;2023-05-29T03:30:11;94826.84;;;13.19;84.83
22651;BME280;11492;42.646;23.400;2023-05-29T03:32:37;94832.03;;;13.19;84.98
22651;BME280;11492;42.646;23.400;2023-05-29T03:35:02;94826.88;;;13.25;84.16
22651;BME280;11492;42.646;23.400;2023-05-29T03:37:29;94843.63;;;13.36;82.95
22651;BME280;11492;42.646;23.400;2023-05-29T03:39:54;94849.81;;;13.47;83.15
22651;BME280;11492;42.646;23.400;2023-05-29T03:42:20;94848.00;;;13.54;82.97
22651;BME280;11492;42.646;23.400;2023-05-29T03:44:46;94845.59;;;13.59;82.77
22651;BME280;11492;42.646;23.400;2023-05-29T03:47:11;94851.38;;;13.74;82.34
22651;BME280;11492;42.646;23.400;2023-05-29T03:49:36;94844.00;;;13.77;81.76
22651;BME280;11492;42.646;23.400;2023-05-29T03:52:02;94851.41;;;13.61;82.85
22651;BME280;11492;42.646;23.400;2023-05-29T03:54:28;94849.16;;;13.71;83.31
22651;BME280;11492;42.646;23.400;2023-05-29T03:56:53;94854.56;;;13.82;83.18
22651;BME280;11492;42.646;23.400;2023-05-29T03:59:18;94845.75;;;13.90;82.96
22651;BME280;11492;42.646;23.400;2023-05-29T04:01:44;94850.75;;;14.04;83.08
22651;BME280;11492;42.646;23.400;2023-05-29T04:04:09;94856.31;;;14.20;83.01
22651;BME280;11492;42.646;23.400;2023-05-29T04:06:35;94858.88;;;14.33;82.84
22651;BME280;11492;42.646;23.400;2023-05-29T04:09:07;94859.84;;;14.45;82.99
22651;BME280;11492;42.646;23.400;2023-05-29T04:11:33;94865.38;;;14.61;82.03
22651;BME280;11492;42.646;23.400;2023-05-29T04:14:02;94870.56;;;14.61;81.51
22651;BME280;11492;42.646;23.400;2023-05-29T04:16:28;94869.31;;;14.76;81.37
22651;BME280;11492;42.646;23.400;2023-05-29T04:18:54;94860.84;;;14.87;81.46
22651;BME280;11492;42.646;23.400;2023-05-29T04:21:20;94866.00;;;15.06;80.50
22651;BME280;11492;42.646;23.400;2023-05-29T04:23:46;94867.09;;;15.16;80.49
22651;BME280;11492;42.646;23.400;2023-05-29T04:26:11;94864.03;;;15.25;80.22
22651;BME280;11492;42.646;23.400;2023-05-29T04:28:38;94865.22;;;15.29;79.97
22651;BME280;11492;42.646;23.400;2023-05-29T04:31:03;94865.72;;;15.44;79.92
22651;BME280;11492;42.646;23.400;2023-05-29T04:33:31;94866.63;;;15.56;78.93
22651;BME280;11492;42.646;23.400;2023-05-29T04:35:57;94868.19;;;15.63;78.39
22651;BME280;11492;42.646;23.400;2023-05-29T04:38:23;94875.88;;;15.76;78.52
22651;BME280;11492;42.646;23.400;2023-05-29T04:40:52;94875.19;;;15.87;77.92
22651;BME280;11492;42.646;23.400;2023-05-29T04:43:18;94866.88;;;15.96;77.58
22651;BME280;11492;42.646;23.400;2023-05-29T04:45:43;94861.56;;;16.09;77.72
22651;BME280;11492;42.646;23.400;2023-05-29T04:48:09;94872.81;;;16.27;76.92
22651;BME280;11492;42.646;23.400;2023-05-29T04:50:34;94862.97;;;16.29;76.41
22651;BME280;11492;42.646;23.400;2023-05-29T04:53:02;94873.28;;;16.42;75.45
22651;BME280;11492;42.646;23.400;2023-05-29T04:55:27;94868.06;;;16.42;75.32
22651;BME280;11492;42.646;23.400;2023-05-29T04:57:53;94872.56;;;16.52;75.17
22651;BME280;11492;42.646;23.400;2023-05-29T05:00:19;94889.63;;;16.66;74.65
22651;BME280;11492;42.646;23.400;2023-05-29T05:02:44;94887.75;;;16.73;74.17
22651;BME280;11492;42.646;23.400;2023-05-29T05:05:10;94892.59;;;16.87;73.00
22651;BME280;11492;42.646;23.400;2023-05-29T05:07:36;94890.03;;;16.98;72.53
22651;BME280;11492;42.646;23.400;2023-05-29T05:10:03;94893.66;;;17.15;71.78
22651;BME280;11492;42.646;23.400;2023-05-29T05:12:28;94896.31;;;17.26;71.94
22651;BME280;11492;42.646;23.400;2023-05-29T05:14:54;94907.69;;;17.32;71.85
22651;BME280;11492;42.646;23.400;2023-05-29T05:17:19;94899.44;;;17.35;71.56
22651;BME280;11492;42.646;23.400;2023-05-29T05:19:45;94902.59;;;17.37;71.47
22651;BME280;11492;42.646;23.400;2023-05-29T05:22:11;94897.84;;;17.34;70.35
22651;BME280;11492;42.646;23.400;2023-05-29T05:24:36;94900.91;;;17.42;71.15
22651;BME280;11492;42.646;23.400;2023-05-29T05:27:03;94906.03;;;17.48;70.87
22651;BME280;11492;42.646;23.400;2023-05-29T05:29:28;94905.16;;;17.54;70.89
22651;BME280;11492;42.646;23.400;2023-05-29T05:31:54;94880.25;;;17.41;70.79
22651;BME280;11492;42.646;23.400;2023-05-29T05:34:20;94888.91;;;17.52;70.91
22651;BME280;11492;42.646;23.400;2023-05-29T05:36:45;94901.00;;;17.65;70.88
22651;BME280;11492;42.646;23.400;2023-05-29T05:39:11;94896.47;;;17.72;71.10
22651;BME280;11492;42.646;23.400;2023-05-29T05:41:36;94895.69;;;17.82;71.70
22651;BME280;11492;42.646;23.400;2023-05-29T05:44:02;94897.94;;;17.90;70.39
22651;BME280;11492;42.646;23.400;2023-05-29T05:46:27;94887.72;;;17.89;70.27
22651;BME280;11492;42.646;23.400;2023-05-29T05:48:53;94899.25;;;17.99;70.88
22651;BME280;11492;42.646;23.400;2023-05-29T05:51:22;94899.91;;;17.95;70.88
22651;BME280;11492;42.646;23.400;2023-05-29T05:53:48;94899.50;;;17.98;70.30
22651;BME280;11492;42.646;23.400;2023-05-29T05:56:13;94908.72;;;18.11;69.94
22651;BME280;11492;42.646;23.400;2023-05-29T05:58:39;94905.06;;;18.12;69.63
22651;BME280;11492;42.646;23.400;2023-05-29T06:01:05;94902.00;;;18.15;69.57
22651;BME280;11492;42.646;23.400;2023-05-29T06:03:32;94900.41;;;18.14;68.91
22651;BME280;11492;42.646;23.400;2023-05-29T06:05:58;94891.41;;;18.10;69.43
22651;BME280;11492;42.646;23.400;2023-05-29T06:08:23;94900.28;;;18.09;69.37
22651;BME280;11492;42.646;23.400;2023-05-29T06:10:49;94904.59;;;18.15;70.22
22651;BME280;11492;42.646;23.400;2023-05-29T06:13:15;94899.50;;;18.20;70.29
22651;BME280;11492;42.646;23.400;2023-05-29T06:15:42;94900.41;;;18.25;70.51
22651;BME280;11492;42.646;23.400;2023-05-29T06:18:08;94899.97;;;18.28;69.74
22651;BME280;11492;42.646;23.400;2023-05-29T06:20:33;94911.44;;;18.27;69.87
22651;BME280;11492;42.646;23.400;2023-05-29T06:22:58;94910.84;;;18.37;69.55
22651;BME280;11492;42.646;23.400;2023-05-29T06:25:24;94908.47;;;18.47;68.94
22651;BME280;11492;42.646;23.400;2023-05-29T06:27:59;94899.38;;;18.60;68.43
22651;BME280;11492;42.646;23.400;2023-05-29T06:30:24;94912.53;;;18.88;67.60
22651;BME280;11492;42.646;23.400;2023-05-29T06:32:50;94903.88;;;18.98;67.21
22651;BME280;11492;42.646;23.400;2023-05-29T06:35:15;94911.50;;;19.00;66.44
22651;BME280;11492;42.646;23.400;2023-05-29T06:37:41;94914.09;;;19.11;66.61
22651;BME280;11492;42.646;23.400;2023-05-29T06:40:07;94909.69;;;19.28;65.71
22651;BME280;11492;42.646;23.400;2023-05-29T06:42:33;94906.53;;;19.26;64.62
22651;BME280;11492;42.646;23.400;2023-05-29T06:44:58;94905.00;;;19.30;64.89
22651;BME280;11492;42.646;23.400;2023-05-29T06:47:24;94909.28;;;19.47;65.08
22651;BME280;11492;42.646;23.400;2023-05-29T06:49:49;94911.03;;;19.69;64.09
22651;BME280;11492;42.646;23.400;2023-05-29T06:52:15;94908.09;;;19.82;63.82
22651;BME280;11492;42.646;23.400;2023-05-29T06:54:40;94900.22;;;19.82;63.32
22651;BME280;11492;42.646;23.400;2023-05-29T06:57:06;94915.22;;;19.70;63.40
22651;BME280;11492;42.646;23.400;2023-05-29T06:59:32;94910.31;;;19.73;63.13
22651;BME280;11492;42.646;23.400;2023-05-29T07:01:58;94905.97;;;19.51;62.54
22651;BME280;11492;42.646;23.400;2023-05-29T07:04:23;94906.47;;;19.65;62.43
22651;BME280;11492;42.646;23.400;2023-05-29T07:06:49;94894.94;;;19.66;62.37
22651;BME280;11492;42.646;23.400;2023-05-29T07:09:14;94900.53;;;19.69;62.55
22651;BME280;11492;42.646;23.400;2023-05-29T07:11:40;94905.25;;;19.83;63.16
22651;BME280;11492;42.646;23.400;2023-05-29T07:14:05;94900.91;;;19.89;62.65
22651;BME280;11492;42.646;23.400;2023-05-29T07:16:30;94905.81;;;19.85;62.36
22651;BME280;11492;42.646;23.400;2023-05-29T07:18:56;94896.53;;;19.94;62.41
22651;BME280;11492;42.646;23.400;2023-05-29T07:21:21;94903.34;;;20.11;61.32
22651;BME280;11492;42.646;23.400;2023-05-29T07:23:47;94897.72;;;20.03;60.44
22651;BME280;11492;42.646;23.400;2023-05-29T07:26:12;94902.56;;;19.95;60.70
22651;BME280;11492;42.646;23.400;2023-05-29T07:28:38;94906.56;;;20.13;60.96
22651;BME280;11492;42.646;23.400;2023-05-29T07:31:03;94909.72;;;20.31;59.50
22651;BME280;11492;42.646;23.400;2023-05-29T07:33:28;94905.59;;;20.51;59.77
22651;BME280;11492;42.646;23.400;2023-05-29T07:35:54;94904.28;;;20.70;60.08
22651;BME280;11492;42.646;23.400;2023-05-29T07:38:20;94911.69;;;20.94;59.44
22651;BME280;11492;42.646;23.400;2023-05-29T07:40:46;94900.22;;;21.00;58.09
22651;BME280;11492;42.646;23.400;2023-05-29T07:43:11;94906.38;;;21.10;58.20
22651;BME280;11492;42.646;23.400;2023-05-29T07:45:37;94900.28;;;21.26;57.63
22651;BME280;11492;42.646;23.400;2023-05-29T07:48:02;94918.31;;;21.18;57.19
22651;BME280;11492;42.646;23.400;2023-05-29T07:50:28;94908.03;;;21.16;57.49
22651;BME280;11492;42.646;23.400;2023-05-29T07:52:53;94901.31;;;21.25;57.89
22651;BME280;11492;42.646;23.400;2023-05-29T07:55:21;94893.19;;;21.05;57.34
22651;BME280;11492;42.646;23.400;2023-05-29T07:57:46;94900.19;;;21.21;57.73
22651;BME280;11492;42.646;23.400;2023-05-29T08:00:12;94903.38;;;21.65;56.34
22651;BME280;11492;42.646;23.400;2023-05-29T08:02:40;94903.25;;;22.07;55.18
22651;BME280;11492;42.646;23.400;2023-05-29T08:05:05;94905.41;;;22.10;54.90
22651;BME280;11492;42.646;23.400;2023-05-29T08:07:33;94915.09;;;21.79;55.45
22651;BME280;11492;42.646;23.400;2023-05-29T08:09:58;94906.97;;;21.85;56.32
22651;BME280;11492;42.646;23.400;2023-05-29T08:12:24;94908.88;;;21.90;56.72
22651;BME280;11492;42.646;23.400;2023-05-29T08:14:50;94910.41;;;22.12;56.40
22651;BME280;11492;42.646;23.400;2023-05-29T08:17:15;94901.59;;;22.63;53.87
22651;BME280;11492;42.646;23.400;2023-05-29T08:19:41;94903.56;;;23.38;52.47
22651;BME280;11492;42.646;23.400;2023-05-29T08:22:12;94895.06;;;24.21;50.54
22651;BME280;11492;42.646;23.400;2023-05-29T08:24:39;94886.88;;;24.37;49.49
22651;BME280;11492;42.646;23.400;2023-05-29T08:27:05;94896.88;;;24.00;49.20
22651;BME280;11492;42.646;23.400;2023-05-29T08:29:30;94910.84;;;23.76;50.89
22651;BME280;11492;42.646;23.400;2023-05-29T08:31:56;94914.44;;;23.46;51.86
22651;BME280;11492;42.646;23.400;2023-05-29T08:34:22;94913.78;;;23.20;51.57
22651;BME280;11492;42.646;23.400;2023-05-29T08:36:47;94909.44;;;22.58;52.64
22651;BME280;11492;42.646;23.400;2023-05-29T08:39:13;94904.34;;;22.11;53.65
22651;BME280;11492;42.646;23.400;2023-05-29T08:44:30;94905.56;;;23.11;52.05
22651;BME280;11492;42.646;23.400;2023-05-29T08:47:02;94883.59;;;23.51;50.54
22651;BME280;11492;42.646;23.400;2023-05-29T08:49:40;94892.03;;;23.49;51.05
22651;BME280;11492;42.646;23.400;2023-05-29T08:52:15;94892.22;;;23.37;51.78
22651;BME280;11492;42.646;23.400;2023-05-29T08:54:41;94898.69;;;23.76;49.00
22651;BME280;11492;42.646;23.400;2023-05-29T08:57:07;94878.88;;;23.63;49.89
22651;BME280;11492;42.646;23.400;2023-05-29T08:59:33;94892.63;;;23.85;50.36
22651;BME280;11492;42.646;23.400;2023-05-29T09:02:00;94887.09;;;24.01;48.64
22651;BME280;11492;42.646;23.400;2023-05-29T09:04:27;94877.38;;;24.06;48.94
22651;BME280;11492;42.646;23.400;2023-05-29T09:06:53;94876.84;;;24.63;46.50
22651;BME280;11492;42.646;23.400;2023-05-29T09:09:20;94862.97;;;25.10;44.16
22651;BME280;11492;42.646;23.400;2023-05-29T09:11:45;94874.94;;;25.55;43.79
22651;BME280;11492;42.646;23.400;2023-05-29T09:14:32;94873.03;;;25.66;42.93
22651;BME280;11492;42.646;23.400;2023-05-29T09:16:59;94867.16;;;25.78;43.48
22651;BME280;11492;42.646;23.400;2023-05-29T09:19:25;94864.78;;;26.20;42.68
22651;BME280;11492;42.646;23.400;2023-05-29T09:21:51;94863.91;;;26.29;42.63
22651;BME280;11492;42.646;23.400;2023-05-29T09:24:16;94851.69;;;26.28;42.18
22651;BME280;11492;42.646;23.400;2023-05-29T09:26:51;94850.16;;;26.22;41.69
22651;BME280;11492;42.646;23.400;2023-05-29T09:29:16;94852.09;;;26.12;42.32
22651;BME280;11492;42.646;23.400;2023-05-29T09:31:48;94840.06;;;25.91;41.16
22651;BME280;11492;42.646;23.400;2023-05-29T09:34:14;94851.69;;;25.57;41.92
22651;BME280;11492;42.646;23.400;2023-05-29T09:36:40;94847.78;;;25.40;42.71
22651;BME280;11492;42.646;23.400;2023-05-29T09:39:06;94846.19;;;25.34;43.47
22651;BME280;11492;42.646;23.400;2023-05-29T09:41:46;94845.50;;;25.14;43.63
22651;BME280;11492;42.646;23.400;2023-05-29T09:44:14;94837.97;;;24.69;43.83
22651;BME280;11492;42.646;23.400;2023-05-29T09:46:41;94836.13;;;24.74;43.83
22651;BME280;11492;42.646;23.400;2023-05-29T09:49:11;94831.81;;;25.02;43.39
22651;BME280;11492;42.646;23.400;2023-05-29T09:51:37;94825.00;;;25.49;43.43
22651;BME280;11492;42.646;23.400;2023-05-29T09:54:17;94832.75;;;26.16;41.86
22651;BME280;11492;42.646;23.400;2023-05-29T09:56:43;94833.50;;;26.22;41.92
22651;BME280;11492;42.646;23.400;2023-05-29T09:59:11;94824.25;;;26.75;41.77
22651;BME280;11492;42.646;23.400;2023-05-29T10:01:39;94828.66;;;27.30;40.46
22651;BME280;11492;42.646;23.400;2023-05-29T10:04:07;94822.66;;;27.79;38.82
22651;BME280;11492;42.646;23.400;2023-05-29T10:06:34;94830.06;;;27.82;37.89
22651;BME280;11492;42.646;23.400;2023-05-29T10:09:01;94820.56;;;27.40;37.96
22651;BME280;11492;42.646;23.400;2023-05-29T10:11:28;94820.41;;;27.09;39.19
22651;BME280;11492;42.646;23.400;2023-05-29T10:13:57;94827.84;;;26.84;39.12
22651;BME280;11492;42.646;23.400;2023-05-29T10:16:23;94822.34;;;26.52;40.28
22651;BME280;11492;42.646;23.400;2023-05-29T10:18:56;94824.78;;;26.44;40.63
22651;BME280;11492;42.646;23.400;2023-05-29T10:21:25;94810.31;;;26.09;40.72
22651;BME280;11492;42.646;23.400;2023-05-29T10:23:54;94816.75;;;25.93;41.39
22651;BME280;11492;42.646;23.400;2023-05-29T10:26:26;94819.09;;;25.62;41.53
22651;BME280;11492;42.646;23.400;2023-05-29T10:29:01;94814.84;;;25.13;42.77
22651;BME280;11492;42.646;23.400;2023-05-29T10:37:08;94811.91;;;24.18;45.51
22651;BME280;11492;42.646;23.400;2023-05-29T10:39:34;94828.25;;;24.05;47.99
22651;BME280;11492;42.646;23.400;2023-05-29T10:42:00;94816.38;;;23.74;47.43
22651;BME280;11492;42.646;23.400;2023-05-29T10:49:23;94822.06;;;23.26;51.94
22651;BME280;11492;42.646;23.400;2023-05-29T10:51:49;94822.59;;;23.19;51.76
22651;BME280;11492;42.646;23.400;2023-05-29T10:54:15;94811.19;;;23.03;50.28
22651;BME280;11492;42.646;23.400;2023-05-29T10:56:44;94807.78;;;23.03;52.20
22651;BME280;11492;42.646;23.400;2023-05-29T10:59:10;94796.00;;;23.35;51.80
22651;BME280;11492;42.646;23.400;2023-05-29T11:01:38;94781.81;;;24.04;47.45
22651;BME280;11492;42.646;23.400;2023-05-29T11:04:30;94796.44;;;24.89;44.36
22651;BME280;11492;42.646;23.400;2023-05-29T11:06:58;94789.56;;;25.45;44.32
22651;BME280;11492;42.646;23.400;2023-05-29T11:09:28;94794.00;;;25.54;41.75
22651;BME280;11492;42.646;23.400;2023-05-29T11:12:23;94774.44;;;25.51;41.27
22651;BME280;11492;42.646;23.400;2023-05-29T11:15:04;94790.09;;;25.80;42.82
22651;BME280;11492;42.646;23.400;2023-05-29T11:20:03;94773.28;;;25.61;41.04
22651;BME280;11492;42.646;23.400;2023-05-29T11:25:16;94780.19;;;26.28;40.32
22651;BME280;11492;42.646;23.400;2023-05-29T11:27:44;94776.19;;;26.53;40.16
22651;BME280;11492;42.646;23.400;2023-05-29T11:30:11;94770.72;;;27.14;40.45
22651;BME280;11492;42.646;23.400;2023-05-29T11:32:38;94762.06;;;28.00;38.14
22651;BME280;11492;42.646;23.400;2023-05-29T11:35:08;94769.31;;;28.57;36.55
22651;BME280;11492;42.646;23.400;2023-05-29T11:37:41;94775.16;;;29.25;35.63
22651;BME280;11492;42.646;23.400;2023-05-29T11:40:12;94773.22;;;29.39;34.76
22651;BME280;11492;42.646;23.400;2023-05-29T11:42:42;94762.25;;;29.06;34.79
22651;BME280;11492;42.646;23.400;2023-05-29T11:45:14;94785.88;;;28.04;36.68
22651;BME280;11492;42.646;23.400;2023-05-29T11:47:57;94786.31;;;25.91;42.10
22651;BME280;11492;42.646;23.400;2023-05-29T11:50:24;94792.78;;;24.70;45.93
22651;BME280;11492;42.646;23.400;2023-05-29T11:52:50;94791.31;;;24.10;48.52
22651;BME280;11492;42.646;23.400;2023-05-29T11:55:19;94799.22;;;23.66;49.65
22651;BME280;11492;42.646;23.400;2023-05-29T11:57:49;94791.94;;;22.93;50.99
22651;BME280;11492;42.646;23.400;2023-05-29T12:00:16;94787.47;;;22.48;51.86
22651;BME280;11492;42.646;23.400;2023-05-29T12:02:43;94794.72;;;22.22;53.00
22651;BME280;11492;42.646;23.400;2023-05-29T12:05:09;94801.66;;;22.01;53.75
22651;BME280;11492;42.646;23.400;2023-05-29T12:07:36;94799.59;;;21.77;54.38
22651;BME280;11492;42.646;23.400;2023-05-29T12:10:12;94796.59;;;21.95;53.60
22651;BME280;11492;42.646;23.400;2023-05-29T12:12:38;94793.72;;;22.32;52.19
22651;BME280;11492;42.646;23.400;2023-05-29T12:15:05;94792.69;;;22.38;51.92
22651;BME280;11492;42.646;23.400;2023-05-29T12:17:35;94781.88;;;22.35;51.54
22651;BME280;11492;42.646;23.400;2023-05-29T12:20:04;94790.25;;;22.27;51.36
22651;BME280;11492;42.646;23.400;2023-05-29T12:22:34;94801.84;;;22.26;51.46
22651;BME280;11492;42.646;23.400;2023-05-29T12:25:23;94790.69;;;22.14;53.26
22651;BME280;11492;42.646;23.400;2023-05-29T12:27:49;94796.25;;;21.87;54.73
22651;BME280;11492;42.646;23.400;2023-05-29T12:32:45;94797.19;;;21.71;55.54
22651;BME280;11492;42.646;23.400;2023-05-29T12:35:20;94807.19;;;21.69;56.78
22651;BME280;11492;42.646;23.400;2023-05-29T12:37:47;94808.38;;;21.31;57.15
22651;BME280;11492;42.646;23.400;2023-05-29T12:40:21;94805.13;;;21.24;56.90
22651;BME280;11492;42.646;23.400;2023-05-29T12:42:48;94812.78;;;21.25;57.78
22651;BME280;11492;42.646;23.400;2023-05-29T12:45:14;94806.91;;;21.40;57.65
22651;BME280;11492;42.646;23.400;2023-05-29T12:47:54;94809.94;;;21.53;55.52
22651;BME280;11492;42.646;23.400;2023-05-29T12:50:20;94803.94;;;21.62;55.91
22651;BME280;11492;42.646;23.400;2023-05-29T12:52:53;94809.75;;;21.64;56.24
22651;BME280;11492;42.646;23.400;2023-05-29T12:55:19;94804.75;;;21.63;55.48
22651;BME280;11492;42.646;23.400;2023-05-29T12:57:44;94805.00;;;21.61;54.48
22651;BME280;11492;42.646;23.400;2023-05-29T13:00:12;94793.75;;;21.40;53.22
22651;BME280;11492;42.646;23.400;2023-05-29T13:02:37;94795.69;;;21.23;53.71
22651;BME280;11492;42.646;23.400;2023-05-29T13:05:03;94801.31;;;21.10;54.71
22651;BME280;11492;42.646;23.400;2023-05-29T13:07:28;94799.94;;;21.03;55.58
22651;BME280;11492;42.646;23.400;2023-05-29T13:09:54;94796.03;;;20.84;56.24
22651;BME280;11492;42.646;23.400;2023-05-29T13:12:20;94786.66;;;20.67;55.76
22651;BME280;11492;42.646;23.400;2023-05-29T13:14:45;94785.00;;;20.61;55.58
22651;BME280;11492;42.646;23.400;2023-05-29T13:17:10;94782.97;;;20.68;55.34
22651;BME280;11492;42.646;23.400;2023-05-29T13:19:36;94796.41;;;20.72;55.81
22651;BME280;11492;42.646;23.400;2023-05-29T13:22:01;94786.81;;;20.82;57.68
22651;BME280;11492;42.646;23.400;2023-05-29T13:24:27;94792.38;;;20.64;57.00